Time;durP1;ratioP1;P1;durP2;ratioP2;P2;SDS_P1;SDS_P2;PMS_P1;PMS_P2;Temp;Humidity;BMP_temperature;BMP_pressure;BME280_temperature;BME280_humidity;BME280_pressure;Samples;Min_cycle;Max_cycle;Signal;HPM_P1;HPM_P2
2022/09/10 00:01:01;;;;;;;0.90;0.30;;;21.50;59.40;;;;;;2569141;52;20936;-72
2022/09/10 00:03:28;;;;;;;1.85;0.43;;;21.40;59.30;;;;;;2324429;54;20963;-73
2022/09/10 00:05:54;;;;;;;2.95;0.35;;;21.40;59.30;;;;;;2371002;52;20943;-71
2022/09/10 00:08:20;;;;;;;0.90;0.20;;;21.40;59.30;;;;;;2324488;54;20940;-76
2022/09/10 00:10:48;;;;;;;0.65;0.25;;;21.40;59.30;;;;;;2323192;54;20935;-73
2022/09/10 00:13:17;;;;;;;0.40;0.20;;;21.40;59.40;;;;;;2511322;52;20932;-75
2022/09/10 00:15:45;;;;;;;0.98;0.28;;;21.40;59.50;;;;;;2325360;54;22155;-75
2022/09/10 00:18:12;;;;;;;1.05;0.40;;;21.40;59.50;;;;;;2324959;54;21936;-79
2022/09/10 00:20:46;;;;;;;0.45;0.20;;;21.40;59.50;;;;;;2481344;52;21063;-74
2022/09/10 00:23:16;;;;;;;1.23;0.40;;;21.40;59.30;;;;;;2326662;53;20980;-77
2022/09/10 00:25:42;;;;;;;0.75;0.30;;;21.40;59.40;;;;;;2528305;52;20992;-72
2022/09/10 00:28:09;;;;;;;1.00;0.30;;;21.40;59.50;;;;;;2325850;54;20968;-74
2022/09/10 00:30:45;;;;;;;2.55;0.40;;;21.40;59.60;;;;;;2570173;52;20984;-73
2022/09/10 00:33:12;;;;;;;0.40;0.13;;;21.40;59.20;;;;;;2569043;52;20932;-76
2022/09/10 00:35:39;;;;;;;1.12;0.30;;;21.40;59.60;;;;;;2324648;54;20964;-75
2022/09/10 00:38:05;;;;;;;0.70;0.22;;;21.40;59.60;;;;;;2323707;54;21043;-79
2022/09/10 00:40:32;;;;;;;0.75;0.17;;;21.40;59.70;;;;;;2340945;52;20916;-74
2022/09/10 00:42:58;;;;;;;3.62;0.40;;;21.40;59.80;;;;;;2323371;54;21470;-73
2022/09/10 00:45:28;;;;;;;0.95;0.30;;;21.30;59.70;;;;;;2325124;54;21019;-73
2022/09/10 00:48:02;;;;;;;2.35;0.40;;;21.30;59.70;;;;;;2324885;54;21458;-75
2022/09/10 00:50:30;;;;;;;1.42;0.40;;;21.30;60.50;;;;;;2568125;52;21051;-75
2022/09/10 00:53:01;;;;;;;1.55;0.40;;;21.30;59.80;;;;;;2325360;54;20900;-72
2022/09/10 00:55:28;;;;;;;0.60;0.30;;;21.30;59.90;;;;;;2551560;52;21040;-72
2022/09/10 00:57:57;;;;;;;0.20;0.17;;;21.20;59.90;;;;;;2325405;54;20931;-72
2022/09/10 01:00:23;;;;;;;1.12;0.30;;;21.20;60.00;;;;;;2323745;54;20955;-73
2022/09/10 01:02:50;;;;;;;2.00;0.30;;;21.20;60.20;;;;;;2569862;52;21539;-72
2022/09/10 01:05:17;;;;;;;1.30;0.40;;;21.20;60.40;;;;;;2570378;52;20924;-73
2022/09/10 01:07:43;;;;;;;1.37;0.30;;;21.10;60.40;;;;;;2325463;54;21066;-73
2022/09/10 01:10:12;;;;;;;0.85;0.30;;;21.10;60.60;;;;;;2325243;54;21003;-73
2022/09/10 01:13:24;;;;;;;1.48;0.30;;;21.10;60.70;;;;;;2325295;54;20940;-73
2022/09/10 01:16:15;;;;;;;0.68;0.20;;;21.00;60.50;;;;;;2325765;54;20947;-74
2022/09/10 01:21:49;;;;;;;2.20;0.30;;;21.00;60.60;;;;;;2325416;54;20916;-73
2022/09/10 01:26:24;;;;;;;1.50;0.47;;;21.00;60.80;;;;;;2388535;52;21027;-76
2022/09/10 01:31:28;;;;;;;0.90;0.20;;;20.90;60.40;;;;;;2427634;52;20955;-74
2022/09/10 01:34:01;;;;;;;0.30;0.13;;;20.90;61.20;;;;;;2324498;54;20997;-74
2022/09/10 01:36:29;;;;;;;1.48;0.30;;;20.80;61.20;;;;;;2325887;53;21348;-74
2022/09/10 01:38:56;;;;;;;1.00;0.30;;;20.70;61.40;;;;;;2565538;52;21066;-75
2022/09/10 01:41:22;;;;;;;1.60;0.47;;;20.70;61.60;;;;;;2323865;54;20999;-73
2022/09/10 01:43:48;;;;;;;0.80;0.20;;;20.70;61.70;;;;;;2371497;53;20944;-74
2022/09/10 01:46:40;;;;;;;0.10;0.10;;;20.70;61.90;;;;;;2568370;52;20924;-74
2022/09/10 01:49:13;;;;;;;1.67;0.30;;;20.60;61.90;;;;;;2325031;54;21010;-75
2022/09/10 01:51:53;;;;;;;1.45;0.47;;;20.60;62.00;;;;;;2326539;54;20911;-75
2022/09/10 01:54:41;;;;;;;0.82;0.47;;;20.60;62.10;;;;;;2325427;54;21062;-75
2022/09/10 01:57:41;;;;;;;0.73;0.20;;;20.60;62.10;;;;;;2563882;52;21016;-75
2022/09/10 02:00:09;;;;;;;1.23;0.30;;;20.60;62.20;;;;;;2325159;54;20908;-74
2022/09/10 02:03:01;;;;;;;0.80;0.20;;;20.50;62.30;;;;;;2569806;52;20956;-74
2022/09/10 02:05:28;;;;;;;0.85;0.30;;;20.50;62.40;;;;;;2325449;54;21199;-74
2022/09/10 02:08:02;;;;;;;0.90;0.30;;;20.50;62.50;;;;;;2302187;54;1347177;-75
2022/09/10 02:10:28;;;;;;;1.40;0.45;;;20.50;62.60;;;;;;2322655;54;20952;-74
2022/09/10 02:12:55;;;;;;;1.83;0.40;;;20.50;62.70;;;;;;2320314;54;21008;-75
2022/09/10 02:15:22;;;;;;;0.57;0.30;;;20.40;62.70;;;;;;2319326;54;20961;-75
2022/09/10 02:17:48;;;;;;;1.42;0.40;;;20.40;62.80;;;;;;2320437;54;20962;-75
2022/09/10 02:20:49;;;;;;;1.30;0.20;;;20.40;62.90;;;;;;2320970;54;21515;-74
2022/09/10 02:23:17;;;;;;;1.35;0.40;;;20.40;62.80;;;;;;2319835;54;21007;-74
2022/09/10 02:25:44;;;;;;;1.02;0.30;;;20.40;63.00;;;;;;2319968;54;21111;-74
2022/09/10 02:28:10;;;;;;;0.30;0.17;;;20.30;63.00;;;;;;2557545;53;20933;-75
2022/09/10 02:30:36;;;;;;;1.02;0.40;;;20.30;63.10;;;;;;2320386;54;20944;-75
2022/09/10 02:33:03;;;;;;;1.20;0.30;;;20.30;63.20;;;;;;2319245;54;20952;-75
2022/09/10 02:35:30;;;;;;;1.58;0.30;;;20.30;63.20;;;;;;2536675;53;21064;-74
2022/09/10 02:37:57;;;;;;;0.60;0.30;;;20.30;63.20;;;;;;2349914;53;22095;-74
2022/09/10 02:40:23;;;;;;;0.73;0.30;;;20.30;63.30;;;;;;2320804;54;21899;-74
2022/09/10 02:42:50;;;;;;;0.73;0.30;;;20.30;63.30;;;;;;2564270;53;20932;-74
2022/09/10 02:45:16;;;;;;;0.35;0.22;;;20.20;63.30;;;;;;2320470;54;21007;-75
2022/09/10 02:47:43;;;;;;;0.98;0.25;;;20.20;63.30;;;;;;2321011;54;20972;-73
2022/09/10 02:50:10;;;;;;;1.40;0.40;;;20.20;63.30;;;;;;2561558;53;21757;-74
2022/09/10 02:52:36;;;;;;;1.25;0.40;;;20.20;63.50;;;;;;2320839;54;22153;-74
2022/09/10 02:55:03;;;;;;;0.80;0.30;;;20.20;63.50;;;;;;2320639;54;22129;-73
2022/09/10 02:57:57;;;;;;;0.98;0.20;;;20.10;63.50;;;;;;2565597;53;20964;-74
2022/09/10 03:00:23;;;;;;;0.90;0.30;;;20.10;63.40;;;;;;2320088;54;21047;-75
2022/09/10 03:02:49;;;;;;;0.40;0.20;;;20.10;63.60;;;;;;2320520;54;21594;-74
2022/09/10 03:05:17;;;;;;;2.33;0.90;;;20.10;63.70;;;;;;2407238;53;20944;-74
2022/09/10 03:07:43;;;;;;;1.83;0.40;;;20.10;63.70;;;;;;2326723;53;22006;-74
2022/09/10 03:10:09;;;;;;;1.35;0.30;;;20.10;63.80;;;;;;2513876;53;22014;-74
2022/09/10 03:12:36;;;;;;;2.25;0.40;;;20.10;63.80;;;;;;2320592;54;21460;-75
2022/09/10 03:15:03;;;;;;;0.88;0.30;;;20.10;63.90;;;;;;2319129;54;21220;-74
2022/09/10 03:17:29;;;;;;;3.58;0.65;;;20.10;63.90;;;;;;2431845;53;20956;-74
2022/09/10 03:19:57;;;;;;;0.50;0.30;;;20.10;63.90;;;;;;2319799;54;21059;-74
2022/09/10 03:22:24;;;;;;;1.37;0.40;;;20.00;63.80;;;;;;2340960;53;20960;-73
2022/09/10 03:24:51;;;;;;;0.77;0.30;;;20.00;63.90;;;;;;2319744;54;21044;-76
2022/09/10 03:27:19;;;;;;;1.27;0.30;;;20.00;63.90;;;;;;2320161;53;20940;-76
2022/09/10 03:29:45;;;;;;;1.30;0.50;;;20.00;64.00;;;;;;2319818;53;20932;-77
2022/09/10 03:32:11;;;;;;;0.88;0.30;;;20.00;64.00;;;;;;2327311;53;20953;-76
2022/09/10 03:34:38;;;;;;;0.20;0.20;;;20.00;64.00;;;;;;2322270;53;21384;-78
2022/09/10 03:37:04;;;;;;;1.70;0.40;;;20.00;64.00;;;;;;2319750;54;20992;-76
2022/09/10 03:39:31;;;;;;;2.53;0.60;;;20.00;64.10;;;;;;2319918;54;21016;-77
2022/09/10 03:41:57;;;;;;;1.17;0.37;;;20.00;64.20;;;;;;2319774;54;22238;-76
2022/09/10 03:44:24;;;;;;;2.50;0.50;;;20.00;64.20;;;;;;2563085;53;20937;-76
2022/09/10 03:46:51;;;;;;;2.42;0.40;;;20.00;64.20;;;;;;2562724;53;20924;-76
2022/09/10 03:49:17;;;;;;;1.85;0.30;;;20.00;64.20;;;;;;2318734;54;21386;-73
2022/09/10 03:51:43;;;;;;;1.40;0.40;;;20.00;64.20;;;;;;2377263;53;21514;-76
2022/09/10 03:54:10;;;;;;;2.08;0.43;;;20.00;64.20;;;;;;2320338;54;20928;-74
2022/09/10 03:56:36;;;;;;;2.72;0.50;;;19.90;64.10;;;;;;2319572;54;21956;-74
2022/09/10 03:59:02;;;;;;;3.03;0.75;;;19.90;64.10;;;;;;2418166;53;21004;-76
2022/09/10 04:01:28;;;;;;;1.15;0.32;;;19.90;64.10;;;;;;2400340;53;21339;-75
2022/09/10 04:03:55;;;;;;;2.35;0.70;;;19.90;64.10;;;;;;2320284;54;20944;-75
2022/09/10 04:06:21;;;;;;;2.30;0.47;;;19.90;64.20;;;;;;2320306;53;20999;-75
2022/09/10 04:08:48;;;;;;;0.62;0.20;;;19.90;64.20;;;;;;2323305;53;21033;-74
2022/09/10 04:11:15;;;;;;;0.50;0.20;;;19.90;64.20;;;;;;2345894;54;20997;-74
2022/09/10 04:13:41;;;;;;;0.98;0.30;;;19.90;64.20;;;;;;2359041;52;20922;-74
2022/09/10 04:16:08;;;;;;;0.60;0.30;;;19.90;64.30;;;;;;2347944;54;21729;-74
2022/09/10 04:18:34;;;;;;;1.37;0.30;;;19.90;64.40;;;;;;2347882;54;21337;-76
2022/09/10 04:21:01;;;;;;;1.25;0.30;;;19.90;64.40;;;;;;2596493;52;21497;-76
2022/09/10 04:23:28;;;;;;;1.40;0.40;;;19.90;64.40;;;;;;2593976;52;20973;-75
2022/09/10 04:25:55;;;;;;;0.80;0.22;;;19.90;64.30;;;;;;2347245;54;20993;-75
2022/09/10 04:28:22;;;;;;;0.75;0.20;;;19.90;64.30;;;;;;2347173;54;21242;-73
2022/09/10 04:30:50;;;;;;;1.70;0.30;;;19.80;64.20;;;;;;2347293;54;21529;-76
2022/09/10 04:33:16;;;;;;;1.37;0.20;;;19.80;64.20;;;;;;2327717;54;21005;-75
2022/09/10 04:35:42;;;;;;;0.70;0.30;;;19.90;64.30;;;;;;2346809;54;20985;-74
2022/09/10 04:38:10;;;;;;;1.15;0.30;;;19.80;64.20;;;;;;2596177;52;21987;-75
2022/09/10 04:40:37;;;;;;;1.67;0.47;;;19.80;64.20;;;;;;2363342;52;20953;-74
2022/09/10 04:43:03;;;;;;;1.40;0.40;;;19.80;64.20;;;;;;2325690;54;21448;-74
2022/09/10 04:45:31;;;;;;;1.37;0.65;;;19.80;64.30;;;;;;2594654;52;21030;-74
2022/09/10 04:47:58;;;;;;;1.08;0.30;;;19.80;64.30;;;;;;2346274;54;20930;-77
2022/09/10 04:50:24;;;;;;;1.10;0.40;;;19.80;64.30;;;;;;2347182;54;21025;-74
2022/09/10 04:52:50;;;;;;;1.48;0.40;;;19.80;64.30;;;;;;2347213;54;21025;-74
2022/09/10 04:55:16;;;;;;;0.73;0.30;;;19.80;64.30;;;;;;2346960;54;20962;-75
2022/09/10 04:57:43;;;;;;;1.10;0.30;;;19.70;64.20;;;;;;2349260;54;20922;-72
2022/09/10 05:00:11;;;;;;;1.87;0.30;;;19.70;64.30;;;;;;2344991;54;20978;-74
2022/09/10 05:02:37;;;;;;;1.65;0.37;;;19.70;64.40;;;;;;2345783;54;21095;-77
2022/09/10 05:05:07;;;;;;;1.35;0.32;;;19.70;64.40;;;;;;2350256;54;20981;-74
2022/09/10 05:07:33;;;;;;;0.70;0.20;;;19.80;64.50;;;;;;2566574;52;21028;-73
2022/09/10 05:09:59;;;;;;;1.42;0.45;;;19.70;64.40;;;;;;2342779;53;21012;-73
2022/09/10 05:12:26;;;;;;;1.33;0.40;;;19.70;64.40;;;;;;2334501;54;20985;-75
2022/09/10 05:14:53;;;;;;;1.12;0.30;;;19.70;64.40;;;;;;2599059;52;21481;-73
2022/09/10 05:17:19;;;;;;;0.73;0.22;;;19.70;64.40;;;;;;2348502;54;20918;-75
2022/09/10 05:19:48;;;;;;;1.48;0.50;;;19.70;64.40;;;;;;2346454;54;20922;-73
2022/09/10 05:22:14;;;;;;;1.33;0.40;;;19.70;64.40;;;;;;2334952;54;20945;-77
2022/09/10 05:24:42;;;;;;;0.37;0.20;;;19.70;64.50;;;;;;2590779;52;20942;-75
2022/09/10 05:27:09;;;;;;;1.20;0.30;;;19.70;64.50;;;;;;2353931;54;20978;-76
2022/09/10 05:29:35;;;;;;;1.02;0.20;;;19.70;64.50;;;;;;2603629;52;20930;-77
2022/09/10 05:32:01;;;;;;;0.57;0.30;;;19.70;64.50;;;;;;2353404;54;20910;-76
2022/09/10 05:34:28;;;;;;;1.75;0.30;;;19.70;64.50;;;;;;2602913;52;20949;-76
2022/09/10 05:36:55;;;;;;;0.37;0.17;;;19.70;64.60;;;;;;2353859;54;20985;-77
2022/09/10 05:39:21;;;;;;;0.68;0.30;;;19.70;64.60;;;;;;2603144;52;21106;-75
2022/09/10 05:41:47;;;;;;;0.20;0.10;;;19.60;64.50;;;;;;2353591;54;21450;-75
2022/09/10 05:44:14;;;;;;;2.90;0.30;;;19.70;64.70;;;;;;2353524;54;20941;-76
2022/09/10 05:46:40;;;;;;;0.68;0.20;;;19.70;64.60;;;;;;2604081;52;21554;-75
2022/09/10 05:49:06;;;;;;;0.68;0.20;;;19.70;64.60;;;;;;2353911;54;21269;-77
2022/09/10 05:51:33;;;;;;;1.40;0.40;;;19.70;64.60;;;;;;2353207;54;20942;-76
2022/09/10 05:53:59;;;;;;;0.52;0.20;;;19.70;64.70;;;;;;2352984;54;20989;-76
2022/09/10 05:56:25;;;;;;;0.43;0.10;;;19.70;64.70;;;;;;2601624;52;20918;-76
2022/09/10 05:58:52;;;;;;;0.90;0.20;;;19.70;64.60;;;;;;2351940;54;20914;-76
2022/09/10 06:01:18;;;;;;;0.60;0.20;;;19.70;64.90;;;;;;2352408;54;22001;-76
2022/09/10 06:03:45;;;;;;;0.95;0.30;;;19.70;64.70;;;;;;2332534;54;20972;-76
2022/09/10 06:06:11;;;;;;;0.40;0.20;;;19.70;64.70;;;;;;2603483;52;20950;-76
2022/09/10 06:08:38;;;;;;;0.35;0.20;;;19.70;64.70;;;;;;2355022;54;21000;-78
2022/09/10 06:11:05;;;;;;;0.32;0.20;;;19.70;64.70;;;;;;2603481;52;25072;-76
2022/09/10 06:13:31;;;;;;;0.95;0.30;;;19.70;64.70;;;;;;2386074;52;20994;-74
2022/09/10 06:15:59;;;;;;;1.42;0.35;;;19.70;64.70;;;;;;2478401;52;21009;-75
2022/09/10 06:18:25;;;;;;;0.55;0.28;;;19.70;64.80;;;;;;2331026;54;21053;-76
2022/09/10 06:21:05;;;;;;;0.32;0.13;;;19.70;64.90;;;;;;2536055;52;20898;-75
2022/09/10 06:23:31;;;;;;;0.70;0.30;;;19.70;64.90;;;;;;2352333;54;20990;-75
2022/09/10 06:26:04;;;;;;;0.90;0.25;;;19.70;65.00;;;;;;2352058;54;20950;-75
2022/09/10 06:28:31;;;;;;;0.85;0.30;;;19.70;65.00;;;;;;2602919;52;20950;-77
2022/09/10 06:30:57;;;;;;;1.15;0.40;;;19.70;65.20;;;;;;2353210;54;20914;-76
2022/09/10 06:33:24;;;;;;;2.10;0.40;;;19.70;65.20;;;;;;2604026;52;20982;-78
2022/09/10 06:35:54;;;;;;;0.62;0.30;;;19.70;65.30;;;;;;2353062;54;20950;-75
2022/09/10 06:38:20;;;;;;;0.60;0.30;;;19.70;65.40;;;;;;2354095;54;20937;-75
2022/09/10 06:40:53;;;;;;;0.93;0.35;;;19.80;65.60;;;;;;2353792;54;21454;-75
2022/09/10 06:43:22;;;;;;;;;;;19.80;65.60;;;;;;2329389;53;20957;-75
2022/09/10 06:45:49;;;;;;;1.27;0.40;;;19.80;65.10;;;;;;2325490;54;20542;-75
2022/09/10 06:48:17;;;;;;;1.33;0.60;;;19.90;65.60;;;;;;2325906;54;20950;-75
2022/09/10 06:51:03;;;;;;;1.40;0.40;;;19.90;65.70;;;;;;2319852;54;21643;-75
2022/09/10 06:53:32;;;;;;;1.52;0.50;;;19.90;65.80;;;;;;2310251;54;20954;-74
2022/09/10 06:55:59;;;;;;;2.20;0.40;;;19.90;65.90;;;;;;2505137;53;20946;-75
2022/09/10 06:58:27;;;;;;;1.27;0.43;;;20.00;66.10;;;;;;2315303;54;20938;-77
2022/09/10 07:00:53;;;;;;;1.55;0.30;;;20.00;66.20;;;;;;2379627;53;20919;-73
2022/09/10 07:03:20;;;;;;;3.10;0.30;;;20.00;66.20;;;;;;2325270;54;21408;-74
2022/09/10 07:05:46;;;;;;;1.40;0.37;;;20.00;66.20;;;;;;2567028;53;21604;-72
2022/09/10 07:08:14;;;;;;;0.77;0.30;;;20.10;66.20;;;;;;2326641;54;20927;-73
2022/09/10 07:10:41;;;;;;;1.37;0.40;;;20.10;66.10;;;;;;2352425;53;20911;-72
2022/09/10 07:13:07;;;;;;;2.15;0.30;;;20.20;66.20;;;;;;2320175;54;20939;-73
2022/09/10 07:15:33;;;;;;;1.10;0.30;;;20.20;66.10;;;;;;2324742;54;20954;-76
2022/09/10 07:18:00;;;;;;;4.05;0.50;;;20.20;66.10;;;;;;2325353;54;20950;-74
2022/09/10 07:20:27;;;;;;;1.90;0.50;;;20.30;66.10;;;;;;2325528;54;20986;-74
2022/09/10 07:22:55;;;;;;;1.52;0.50;;;20.30;66.00;;;;;;2491001;53;20994;-73
2022/09/10 07:25:22;;;;;;;1.67;0.40;;;20.30;65.90;;;;;;2325168;54;21860;-74
2022/09/10 07:27:49;;;;;;;0.82;0.40;;;20.40;65.90;;;;;;2325847;54;20982;-71
2022/09/10 07:30:16;;;;;;;1.77;0.40;;;20.40;65.80;;;;;;2326271;54;21050;-72
2022/09/10 07:32:44;;;;;;;1.70;0.40;;;20.40;65.80;;;;;;2325224;54;20942;-72
2022/09/10 07:35:10;;;;;;;0.68;0.30;;;20.50;65.90;;;;;;2361536;53;20939;-73
2022/09/10 07:37:38;;;;;;;1.98;0.40;;;20.50;65.90;;;;;;2325765;54;21997;-74
2022/09/10 07:40:10;;;;;;;2.72;0.60;;;20.50;65.80;;;;;;2325306;54;21006;-74
2022/09/10 07:42:37;;;;;;;2.03;0.60;;;20.50;65.80;;;;;;2569595;52;20940;-73
2022/09/10 07:45:04;;;;;;;1.15;0.40;;;20.50;65.80;;;;;;2330077;54;20939;-72
2022/09/10 07:47:33;;;;;;;2.15;0.47;;;20.50;65.80;;;;;;2329903;54;21518;-71
2022/09/10 07:50:00;;;;;;;2.37;1.00;;;20.50;65.80;;;;;;2330019;54;21370;-75
2022/09/10 07:52:28;;;;;;;4.37;0.62;;;20.50;65.80;;;;;;2331544;53;21543;-72
2022/09/10 07:54:54;;;;;;;0.68;0.30;;;20.60;66.00;;;;;;2327613;53;20974;-72
2022/09/10 07:57:21;;;;;;;0.90;0.40;;;20.60;66.10;;;;;;2327578;53;21064;-72
2022/09/10 07:59:47;;;;;;;3.37;0.50;;;20.60;66.10;;;;;;2566689;53;21384;-73
2022/09/10 08:02:14;;;;;;;1.00;0.40;;;20.60;66.10;;;;;;2329628;54;20995;-72
2022/09/10 08:04:40;;;;;;;0.95;0.40;;;20.70;66.10;;;;;;2333929;53;20947;-73
2022/09/10 08:07:07;;;;;;;1.90;0.50;;;20.70;66.10;;;;;;2570508;52;20976;-73
2022/09/10 08:09:33;;;;;;;1.62;0.55;;;20.70;66.10;;;;;;2329526;53;20971;-73
2022/09/10 08:11:59;;;;;;;1.70;0.50;;;20.80;66.10;;;;;;2572986;52;20907;-72
2022/09/10 08:14:26;;;;;;;1.75;0.60;;;20.80;66.00;;;;;;2557175;52;20908;-72
2022/09/10 08:16:53;;;;;;;0.95;0.30;;;20.80;66.00;;;;;;2330477;54;20935;-72
2022/09/10 08:19:19;;;;;;;0.93;0.40;;;20.80;65.90;;;;;;2576162;52;20935;-75
2022/09/10 08:21:46;;;;;;;2.00;0.47;;;20.90;66.00;;;;;;2330404;54;20983;-73
2022/09/10 08:24:12;;;;;;;2.05;0.60;;;20.90;66.00;;;;;;2575902;52;20954;-74
2022/09/10 08:26:39;;;;;;;1.70;0.40;;;20.90;66.00;;;;;;2329332;54;20950;-74
2022/09/10 08:29:05;;;;;;;1.27;0.35;;;20.90;66.00;;;;;;2326923;54;20951;-73
2022/09/10 08:31:31;;;;;;;0.70;0.30;;;21.00;66.00;;;;;;2328564;54;21078;-75
2022/09/10 08:33:57;;;;;;;4.03;0.52;;;21.00;66.00;;;;;;2329453;54;20927;-73
2022/09/10 08:36:24;;;;;;;1.67;0.40;;;21.00;65.90;;;;;;2330194;54;20936;-74
2022/09/10 08:38:50;;;;;;;1.05;0.30;;;21.00;65.80;;;;;;2329845;54;20975;-73
2022/09/10 08:42:40;;;;;;;1.70;0.45;;;21.00;65.80;;;;;;2330879;54;21466;-74
2022/09/10 08:45:15;;;;;;;2.05;0.50;;;21.00;65.20;;;;;;2329173;54;21042;-74
2022/09/10 08:47:59;;;;;;;0.90;0.30;;;21.00;65.50;;;;;;2330703;54;22136;-74
2022/09/10 08:50:39;;;;;;;2.78;0.55;;;21.10;65.60;;;;;;2332104;53;21007;-74
2022/09/10 08:53:28;;;;;;;1.42;0.55;;;21.10;65.60;;;;;;2329049;54;21423;-76
2022/09/10 08:55:56;;;;;;;2.10;0.60;;;21.00;65.40;;;;;;2332870;54;20935;-74
2022/09/10 08:58:41;;;;;;;2.90;0.68;;;21.00;65.70;;;;;;2325211;54;21300;-74
2022/09/10 09:01:29;;;;;;;1.30;0.40;;;21.00;65.50;;;;;;2326885;54;20939;-76
2022/09/10 09:03:56;;;;;;;2.60;0.60;;;21.00;65.70;;;;;;2329370;54;21062;-74
2022/09/10 09:06:38;;;;;;;2.40;0.70;;;21.00;65.70;;;;;;2329717;54;21063;-74
2022/09/10 09:09:04;;;;;;;1.50;0.60;;;21.00;65.60;;;;;;2318745;54;20948;-74
2022/09/10 09:12:08;;;;;;;2.70;0.50;;;21.00;65.80;;;;;;2312268;54;21003;-74
2022/09/10 09:17:57;;;;;;;2.33;0.55;;;21.10;65.80;;;;;;2324034;54;20933;-74
2022/09/10 09:27:13;;;;;;;2.20;0.50;;;21.10;65.90;;;;;;2326367;53;21571;-73
2022/09/10 09:30:01;;;;;;;3.62;0.88;;;21.10;65.90;;;;;;2324492;54;20986;-75
2022/09/10 09:32:32;;;;;;;3.22;0.57;;;21.20;65.70;;;;;;2544356;53;21968;-74
2022/09/10 09:35:14;;;;;;;1.15;0.40;;;21.10;65.90;;;;;;2300829;54;20982;-72
2022/09/10 09:37:40;;;;;;;2.22;0.70;;;21.10;66.10;;;;;;2377438;52;20974;-73
2022/09/10 09:41:06;;;;;;;1.58;0.40;;;21.10;66.20;;;;;;2572735;52;21395;-76
2022/09/10 09:43:53;;;;;;;2.05;0.70;;;21.20;66.10;;;;;;2340332;52;20948;-72
2022/09/10 09:46:19;;;;;;;3.05;0.68;;;21.20;66.20;;;;;;2567680;52;20908;-75
2022/09/10 09:48:46;;;;;;;1.05;0.47;;;21.20;66.40;;;;;;2328525;54;21307;-73
2022/09/10 09:51:19;;;;;;;2.30;0.70;;;21.30;66.50;;;;;;2322816;53;22170;-72
2022/09/10 09:53:49;;;;;;;1.45;0.50;;;21.30;66.30;;;;;;2325615;54;21030;-73
2022/09/10 09:56:35;;;;;;;1.80;0.50;;;21.30;66.10;;;;;;2569411;52;21337;-73
2022/09/10 09:59:30;;;;;;;1.90;0.47;;;21.40;65.90;;;;;;2449520;52;21023;-73
2022/09/10 10:02:19;;;;;;;1.02;0.25;;;21.40;65.90;;;;;;2325232;54;20951;-73
2022/09/10 10:08:50;;;;;;;1.10;0.50;;;21.40;66.00;;;;;;2327387;54;22068;-75
2022/09/10 10:11:18;;;;;;;1.67;0.50;;;21.50;65.70;;;;;;2572440;52;20916;-72
2022/09/10 10:13:44;;;;;;;1.95;0.55;;;21.60;66.20;;;;;;2325146;54;21863;-73
2022/09/10 10:16:39;;;;;;;2.17;0.52;;;21.60;66.20;;;;;;2326293;54;20956;-74
2022/09/10 10:19:30;;;;;;;2.50;0.60;;;21.60;65.90;;;;;;2324016;54;20990;-74
2022/09/10 10:21:58;;;;;;;1.73;0.60;;;21.70;65.70;;;;;;2327836;54;20923;-74
2022/09/10 10:24:32;;;;;;;2.40;0.50;;;21.70;66.10;;;;;;2324559;54;21985;-74
2022/09/10 10:26:58;;;;;;;1.65;0.57;;;21.80;65.90;;;;;;2325853;54;20991;-73
2022/09/10 10:29:25;;;;;;;0.98;0.40;;;21.80;66.10;;;;;;2327289;54;20904;-74
2022/09/10 10:31:52;;;;;;;1.25;0.30;;;21.80;66.10;;;;;;2483544;52;21044;-74
2022/09/10 10:34:40;;;;;;;1.10;0.35;;;21.80;66.10;;;;;;2324022;53;20936;-73
2022/09/10 10:38:33;;;;;;;1.02;0.40;;;21.90;66.10;;;;;;2325649;54;20939;-73
2022/09/10 10:47:54;;;;;;;1.02;0.40;;;22.00;65.50;;;;;;2565861;52;20946;-72
2022/09/10 10:53:58;;;;;;;1.80;0.45;;;22.20;65.20;;;;;;2323577;54;20967;-73
2022/09/10 10:58:15;;;;;;;0.85;0.40;;;22.20;64.90;;;;;;2327808;53;20991;-73
2022/09/10 11:00:44;;;;;;;1.90;0.40;;;22.30;65.10;;;;;;2325235;54;20915;-72
2022/09/10 11:03:17;;;;;;;2.35;0.47;;;22.30;65.30;;;;;;2327121;53;21087;-72
2022/09/10 11:05:46;;;;;;;1.65;0.50;;;22.30;65.10;;;;;;2323951;53;21047;-70
2022/09/10 11:08:18;;;;;;;1.37;0.35;;;22.20;65.20;;;;;;2325994;54;21031;-70
2022/09/10 11:10:46;;;;;;;1.02;0.50;;;22.30;65.40;;;;;;2324013;54;20967;-72
2022/09/10 11:14:39;;;;;;;1.37;0.50;;;22.30;65.50;;;;;;2326749;53;20990;-71
2022/09/10 11:17:27;;;;;;;0.98;0.40;;;22.30;64.70;;;;;;2327255;53;21107;-72
2022/09/10 11:21:26;;;;;;;1.92;0.70;;;22.30;65.10;;;;;;2324952;53;20975;-73
2022/09/10 11:24:12;;;;;;;2.22;0.70;;;22.40;64.50;;;;;;2324281;54;21505;-71
2022/09/10 11:27:01;;;;;;;1.70;0.60;;;22.40;64.60;;;;;;2325317;54;21259;-74
2022/09/10 11:31:29;;;;;;;2.30;0.60;;;22.40;64.60;;;;;;2326277;54;20935;-73
2022/09/10 11:34:16;;;;;;;1.52;0.40;;;22.40;64.20;;;;;;2324611;54;20903;-73
2022/09/10 11:37:05;;;;;;;0.57;0.30;;;22.40;64.20;;;;;;2325895;54;20975;-73
2022/09/10 11:39:36;;;;;;;1.75;0.43;;;22.40;64.30;;;;;;2325490;54;20908;-72
2022/09/10 11:42:31;;;;;;;1.42;0.40;;;22.40;64.60;;;;;;2325663;54;21375;-70
2022/09/10 11:45:01;;;;;;;0.90;0.37;;;22.40;64.50;;;;;;2570356;52;20974;-70
2022/09/10 11:49:16;;;;;;;1.65;0.45;;;22.40;64.70;;;;;;2325684;54;20948;-70
2022/09/10 11:51:43;;;;;;;0.62;0.30;;;22.40;64.10;;;;;;2417383;53;22091;-70
2022/09/10 11:54:14;;;;;;;1.42;0.37;;;22.40;64.70;;;;;;2366209;52;20936;-70
2022/09/10 11:57:41;;;;;;;0.68;0.30;;;22.40;64.50;;;;;;2326274;54;20915;-73
2022/09/10 12:00:15;;;;;;;1.35;0.50;;;22.40;64.00;;;;;;2326566;54;21067;-72
2022/09/10 12:05:37;;;;;;;2.65;0.47;;;22.40;64.40;;;;;;2521845;52;21023;-71
2022/09/10 12:15:16;;;;;;;1.08;0.30;;;22.40;64.20;;;;;;2449193;52;20943;-71
2022/09/10 12:17:45;;;;;;;2.00;0.40;;;22.50;64.60;;;;;;2328656;54;20936;-72
2022/09/10 12:20:17;;;;;;;1.45;0.40;;;22.50;64.80;;;;;;2445539;52;21958;-73
2022/09/10 12:22:43;;;;;;;0.55;0.30;;;22.50;64.70;;;;;;2324333;53;20939;-71
2022/09/10 12:25:43;;;;;;;1.40;0.40;;;22.50;64.90;;;;;;2375772;52;20989;-72
2022/09/10 12:29:00;;;;;;;1.90;0.40;;;22.60;64.30;;;;;;2325476;53;21318;-75
2022/09/10 12:31:26;;;;;;;1.35;0.50;;;22.60;64.40;;;;;;2325645;54;20927;-72
2022/09/10 12:34:05;;;;;;;2.50;0.50;;;22.60;65.00;;;;;;2408347;52;20947;-76
2022/09/10 12:37:18;;;;;;;4.65;0.60;;;22.60;64.70;;;;;;2344157;52;20959;-72
2022/09/10 12:39:45;;;;;;;1.70;0.57;;;22.70;64.40;;;;;;2325047;54;21296;-73
2022/09/10 12:42:33;;;;;;;1.45;0.40;;;22.70;64.90;;;;;;2326569;54;20984;-73
2022/09/10 12:44:59;;;;;;;0.73;0.40;;;22.70;64.30;;;;;;2328757;53;21467;-72
2022/09/10 12:47:31;;;;;;;1.33;0.30;;;22.70;64.60;;;;;;2323182;53;20930;-71
2022/09/10 12:50:02;;;;;;;1.92;0.55;;;22.80;64.00;;;;;;2326534;53;22018;-73
2022/09/10 12:53:18;;;;;;;1.57;0.37;;;22.80;63.80;;;;;;2329655;53;20923;-72
2022/09/10 12:56:21;;;;;;;1.48;0.40;;;22.80;62.70;;;;;;2327430;53;22037;-70
2022/09/10 12:59:18;;;;;;;1.00;0.22;;;22.80;62.60;;;;;;2323350;54;21480;-72
2022/09/10 13:01:45;;;;;;;1.48;0.50;;;22.70;62.20;;;;;;2323737;54;21258;-72
2022/09/10 13:04:34;;;;;;;1.67;0.50;;;22.70;62.70;;;;;;2324189;54;20999;-72
2022/09/10 13:07:44;;;;;;;0.70;0.30;;;22.70;61.90;;;;;;2327488;54;20920;-76
2022/09/10 13:10:21;;;;;;;1.92;0.50;;;22.60;61.40;;;;;;2324952;54;21015;-72
2022/09/10 13:12:49;;;;;;;1.62;0.40;;;22.60;62.30;;;;;;2325942;54;21480;-72
2022/09/10 13:15:20;;;;;;;1.33;0.40;;;22.60;62.60;;;;;;2326918;54;20944;-72
2022/09/10 13:20:58;;;;;;;1.25;0.43;;;22.50;62.50;;;;;;2327966;54;20931;-72
2022/09/10 13:23:46;;;;;;;0.93;0.30;;;22.50;62.20;;;;;;2327417;54;20940;-73
2022/09/10 13:36:30;;;;;;;1.23;0.30;;;22.50;62.50;;;;;;2328126;54;21727;-72
2022/09/10 13:39:45;;;;;;;1.42;0.35;;;22.60;62.40;;;;;;2324468;54;20943;-72
2022/09/10 13:45:47;;;;;;;1.20;0.30;;;22.60;62.20;;;;;;2327212;54;20916;-72
2022/09/10 13:48:21;;;;;;;2.65;0.70;;;22.60;62.30;;;;;;2327132;54;21050;-72
2022/09/10 13:51:14;;;;;;;1.85;0.43;;;22.50;62.90;;;;;;2379338;52;20994;-72
2022/09/10 13:54:17;;;;;;;4.05;1.87;;;22.50;62.40;;;;;;2482890;52;21621;-71
2022/09/10 13:56:43;;;;;;;3.65;1.60;;;22.50;62.20;;;;;;2325138;54;21047;-72
2022/09/10 13:59:29;;;;;;;4.82;1.10;;;22.50;62.80;;;;;;2323904;54;22164;-73
2022/09/10 14:01:55;;;;;;;2.40;0.70;;;22.50;62.50;;;;;;2569617;52;20942;-71
2022/09/10 14:04:29;;;;;;;2.42;0.60;;;22.50;62.90;;;;;;2452059;52;20936;-72
2022/09/10 14:07:21;;;;;;;2.10;0.52;;;22.50;62.60;;;;;;2324141;54;20916;-72
2022/09/10 14:10:09;;;;;;;1.35;0.50;;;22.50;62.40;;;;;;2324984;54;20908;-73
2022/09/10 14:12:36;;;;;;;1.92;0.47;;;22.50;61.70;;;;;;2326944;54;21320;-73
2022/09/10 14:15:03;;;;;;;1.65;0.43;;;22.50;62.40;;;;;;2326120;54;21321;-74
2022/09/10 14:17:41;;;;;;;2.30;0.45;;;22.50;62.50;;;;;;2324251;54;21366;-74
2022/09/10 14:20:30;;;;;;;2.05;0.50;;;22.40;61.70;;;;;;2376013;52;20936;-75
2022/09/10 14:23:06;;;;;;;1.67;0.50;;;22.50;61.40;;;;;;2323195;54;20916;-73